This is the latest recevied weather packets stored in our database for station/object CE2LOH-10. If no packets are shown the sender has not sent any weather packets the latest 10 day(s).
| Time | Temp. | Humidity | Pressure | Rain* | Wind** | Luminosity | Snow |
|---|---|---|---|---|---|---|---|
| 1777873115 | 15° C | 31% | 994.7 hPa | - | - | - | - |
| 1777872215 | 15.56° C | 31% | 995.1 hPa | - | - | - | - |
| 1777871315 | 15.56° C | 31% | 995.3 hPa | - | - | - | - |
| 1777870415 | 15.56° C | 31% | 995.3 hPa | - | - | - | - |
| 1777869514 | 15.56° C | 31% | 995.3 hPa | - | - | - | - |
| 1777868614 | 16.11° C | 31% | 995.4 hPa | - | - | - | - |
| 1777867714 | 16.11° C | 30% | 995.3 hPa | - | - | - | - |
| 1777845211 | 22.78° C | 29% | 994.8 hPa | - | - | - | - |
| 1777843415 | 22.78° C | 29% | 994.6 hPa | - | - | - | - |
| 1777842511 | 23.33° C | 29% | 994.5 hPa | - | - | - | - |
| 1777839810 | 23.89° C | 30% | 994.1 hPa | - | - | - | - |
| 1777838010 | 23.89° C | 32% | 993.7 hPa | - | - | - | - |
| 1777837110 | 23.89° C | 32% | 993.6 hPa | - | - | - | - |
| 1777836210 | 23.33° C | 34% | 993.8 hPa | - | - | - | - |
| 1777835310 | 23.33° C | 34% | 993.8 hPa | - | - | - | - |
| 1777831709 | 22.78° C | 37% | 994.1 hPa | - | - | - | - |
| 1777822708 | 18.33° C | 45% | 995.5 hPa | - | - | - | - |
| 1777819107 | 16.11° C | 47% | 995.5 hPa | - | - | - | - |
| 1777811906 | 12.78° C | 47% | 995.1 hPa | - | - | - | - |
| 1777806505 | 13.33° C | 46% | 994.7 hPa | - | - | - | - |
| 1777805605 | 13.33° C | 46% | 994.6 hPa | - | - | - | - |
| 1777804705 | 13.33° C | 46% | 994.4 hPa | - | - | - | - |
| 1777802904 | 13.89° C | 45% | 994.2 hPa | - | - | - | - |
| 1777801104 | 13.89° C | 45% | 994.4 hPa | - | - | - | - |
| 1777800204 | 13.89° C | 45% | 994.6 hPa | - | - | - | - |
* Rain since midnight (hover to see other rain measurements)
** Current wind speed in m/s (hover to see current wind gust speed)